createdAt,value
2024-01-24T00:00:57.206Z,100.00
2024-01-24T00:03:24.048Z,100.00
2024-01-24T00:05:52.066Z,100.00
2024-01-24T00:08:18.672Z,100.00
2024-01-24T00:10:45.594Z,100.00
2024-01-24T00:13:12.117Z,100.00
2024-01-24T00:15:39.310Z,100.00
2024-01-24T00:18:05.877Z,100.00
2024-01-24T00:20:32.406Z,100.00
2024-01-24T00:22:59.023Z,100.00
2024-01-24T00:25:25.487Z,100.00
2024-01-24T00:27:52.124Z,100.00
2024-01-24T00:30:18.708Z,100.00
2024-01-24T00:32:45.485Z,100.00
2024-01-24T00:35:12.130Z,100.00
2024-01-24T00:37:38.642Z,100.00
2024-01-24T00:40:05.733Z,100.00
2024-01-24T00:42:32.257Z,100.00
2024-01-24T00:44:59.100Z,100.00
2024-01-24T00:47:25.778Z,100.00
2024-01-24T00:49:52.287Z,100.00
2024-01-24T00:52:18.918Z,100.00
2024-01-24T00:54:45.481Z,100.00
2024-01-24T00:57:12.833Z,100.00
2024-01-24T00:59:39.556Z,100.00
2024-01-24T01:02:06.150Z,100.00
2024-01-24T01:04:32.794Z,100.00
2024-01-24T01:06:59.405Z,100.00
2024-01-24T01:09:25.940Z,100.00
2024-01-24T01:11:52.534Z,100.00
2024-01-24T01:14:19.135Z,100.00
2024-01-24T01:16:46.089Z,100.00
2024-01-24T01:19:12.581Z,100.00
2024-01-24T01:21:41.392Z,100.00
2024-01-24T01:24:09.691Z,100.00
2024-01-24T01:26:36.303Z,100.00
2024-01-24T01:29:03.277Z,100.00
2024-01-24T01:31:29.749Z,100.00
2024-01-24T01:33:57.014Z,100.00
2024-01-24T01:36:24.078Z,100.00
2024-01-24T01:38:51.424Z,100.00
2024-01-24T01:41:18.616Z,100.00
2024-01-24T01:43:45.927Z,100.00
2024-01-24T01:46:19.444Z,100.00
2024-01-24T01:48:46.474Z,100.00
2024-01-24T01:51:13.932Z,100.00
2024-01-24T01:53:40.756Z,100.00
2024-01-24T01:56:10.159Z,100.00
2024-01-24T01:58:38.367Z,100.00
2024-01-24T02:01:07.212Z,100.00
2024-01-24T02:03:34.238Z,100.00
2024-01-24T02:06:01.775Z,100.00
2024-01-24T02:08:28.737Z,100.00
2024-01-24T02:10:57.035Z,100.00
2024-01-24T02:13:23.573Z,100.00
2024-01-24T02:15:50.431Z,100.00
2024-01-24T02:18:17.097Z,100.00
2024-01-24T02:20:44.770Z,100.00
2024-01-24T02:23:13.378Z,100.00
2024-01-24T02:25:39.929Z,100.00
2024-01-24T02:28:06.704Z,100.00
2024-01-24T02:30:33.358Z,100.00
2024-01-24T02:33:01.734Z,100.00
2024-01-24T02:35:31.833Z,100.00
2024-01-24T02:37:58.737Z,100.00
2024-01-24T02:40:25.400Z,100.00
2024-01-24T02:42:52.397Z,100.00
2024-01-24T02:45:19.291Z,100.00
2024-01-24T02:47:46.619Z,100.00
2024-01-24T02:50:15.018Z,100.00
2024-01-24T02:52:41.992Z,100.00
2024-01-24T02:55:08.863Z,100.00
2024-01-24T02:57:35.709Z,100.00
2024-01-24T03:00:02.216Z,100.00
2024-01-24T03:02:28.764Z,100.00
2024-01-24T03:04:55.370Z,100.00
2024-01-24T03:07:21.919Z,100.00
2024-01-24T03:09:48.737Z,100.00
2024-01-24T03:12:15.304Z,100.00
2024-01-24T03:14:41.782Z,100.00
2024-01-24T03:17:09.285Z,100.00
2024-01-24T03:19:36.186Z,100.00
2024-01-24T03:22:02.948Z,100.00
2024-01-24T03:24:29.493Z,100.00
2024-01-24T03:26:55.992Z,100.00
2024-01-24T03:29:22.748Z,100.00
2024-01-24T03:31:49.212Z,100.00
2024-01-24T03:34:17.073Z,100.00
2024-01-24T03:36:43.656Z,100.00
2024-01-24T03:39:10.773Z,100.00
2024-01-24T03:41:40.721Z,100.00
2024-01-24T03:44:07.556Z,100.00
2024-01-24T03:46:34.185Z,100.00
2024-01-24T03:49:00.726Z,100.00
2024-01-24T03:51:29.418Z,100.00
2024-01-24T03:53:55.934Z,100.00
2024-01-24T03:56:22.509Z,100.00
2024-01-24T03:58:48.993Z,100.00
2024-01-24T04:01:17.158Z,100.00
2024-01-24T04:03:43.746Z,100.00
2024-01-24T04:06:10.330Z,100.00
2024-01-24T04:08:36.920Z,100.00
2024-01-24T04:11:03.517Z,100.00
2024-01-24T04:13:30.174Z,100.00
2024-01-24T04:15:56.675Z,100.00
2024-01-24T04:18:23.409Z,100.00
2024-01-24T04:20:49.976Z,100.00
2024-01-24T04:23:16.581Z,100.00
2024-01-24T04:25:43.041Z,100.00
2024-01-24T04:28:10.350Z,100.00
2024-01-24T04:30:37.031Z,100.00
2024-01-24T04:33:03.953Z,100.00
2024-01-24T04:35:30.700Z,100.00
2024-01-24T04:37:57.249Z,100.00
2024-01-24T04:40:23.839Z,100.00
2024-01-24T04:42:50.326Z,100.00
2024-01-24T04:45:17.353Z,100.00
2024-01-24T04:47:44.399Z,100.00
2024-01-24T04:50:12.369Z,100.00
2024-01-24T04:52:39.511Z,100.00
2024-01-24T04:55:12.173Z,100.00
2024-01-24T04:57:40.115Z,100.00
2024-01-24T05:00:10.767Z,100.00
2024-01-24T05:02:37.656Z,100.00
2024-01-24T05:05:07.753Z,100.00
2024-01-24T05:07:35.629Z,100.00
2024-01-24T05:10:04.633Z,100.00
2024-01-24T05:12:31.986Z,100.00
2024-01-24T05:14:58.824Z,100.00
2024-01-24T05:17:25.354Z,100.00
2024-01-24T05:19:52.037Z,100.00
2024-01-24T05:22:18.783Z,100.00
2024-01-24T05:24:46.548Z,100.00
2024-01-24T05:27:14.089Z,100.00
2024-01-24T05:29:40.857Z,100.00
2024-01-24T05:32:07.645Z,100.00
2024-01-24T05:34:34.315Z,100.00
2024-01-24T05:37:01.132Z,100.00
2024-01-24T05:39:27.780Z,100.00
2024-01-24T05:41:54.452Z,100.00
2024-01-24T05:44:21.307Z,100.00
2024-01-24T05:46:47.918Z,100.00
2024-01-24T05:49:14.529Z,100.00
2024-01-24T05:51:42.098Z,100.00
2024-01-24T05:54:08.610Z,100.00
2024-01-24T05:56:36.418Z,100.00
2024-01-24T05:59:03.093Z,100.00
2024-01-24T06:01:29.896Z,100.00
2024-01-24T06:03:56.734Z,100.00
2024-01-24T06:06:23.367Z,100.00
2024-01-24T06:08:50.097Z,100.00
2024-01-24T06:11:18.251Z,100.00
2024-01-24T06:13:44.987Z,100.00
2024-01-24T06:16:11.651Z,100.00
2024-01-24T06:18:38.311Z,100.00
2024-01-24T06:21:05.082Z,100.00
2024-01-24T06:23:31.645Z,100.00
2024-01-24T06:25:58.244Z,100.00
2024-01-24T06:28:24.679Z,100.00
2024-01-24T06:30:52.841Z,100.00
2024-01-24T06:33:19.597Z,100.00
2024-01-24T06:35:46.130Z,100.00
2024-01-24T06:38:13.630Z,100.00
2024-01-24T06:40:40.335Z,100.00
2024-01-24T06:43:07.180Z,100.00
2024-01-24T06:45:35.037Z,100.00
2024-01-24T06:48:02.663Z,100.00
2024-01-24T06:50:30.848Z,100.00
2024-01-24T06:52:59.371Z,100.00
2024-01-24T06:55:26.115Z,100.00
2024-01-24T06:57:52.717Z,98.26
2024-01-24T07:00:20.205Z,96.51
2024-01-24T07:02:46.849Z,97.38
2024-01-24T07:05:14.145Z,98.33
2024-01-24T07:07:40.634Z,100.00
2024-01-24T07:10:12.730Z,100.00
2024-01-24T07:12:46.025Z,100.00
2024-01-24T07:15:13.552Z,100.00
2024-01-24T07:17:40.847Z,100.00
2024-01-24T07:20:08.310Z,100.00
2024-01-24T07:22:35.005Z,100.00
2024-01-24T07:25:02.731Z,100.00
2024-01-24T07:27:31.750Z,100.00
2024-01-24T07:29:59.113Z,100.00
2024-01-24T07:32:25.970Z,100.00
2024-01-24T07:34:52.562Z,100.00
2024-01-24T07:37:19.284Z,100.00
2024-01-24T07:39:45.773Z,94.08
2024-01-24T07:42:12.250Z,94.46
2024-01-24T07:44:38.889Z,92.51
2024-01-24T07:47:05.790Z,90.75
2024-01-24T07:49:37.576Z,90.27
2024-01-24T07:52:05.857Z,92.52
2024-01-24T07:54:32.737Z,97.60
2024-01-24T07:56:59.388Z,100.00
2024-01-24T07:59:26.033Z,98.77
2024-01-24T08:01:52.754Z,100.00
2024-01-24T08:04:19.694Z,100.00
2024-01-24T08:06:49.155Z,100.00
2024-01-24T08:09:18.928Z,100.00
2024-01-24T08:11:48.286Z,100.00
2024-01-24T08:14:15.881Z,100.00
2024-01-24T08:17:02.836Z,100.00
2024-01-24T08:19:29.607Z,100.00
2024-01-24T08:21:56.810Z,100.00
2024-01-24T08:24:23.485Z,100.00
2024-01-24T08:26:51.303Z,100.00
2024-01-24T08:29:25.862Z,100.00
2024-01-24T08:31:58.631Z,100.00
2024-01-24T08:34:25.496Z,100.00
2024-01-24T08:36:52.057Z,100.00
2024-01-24T08:39:18.833Z,100.00
2024-01-24T08:41:45.347Z,100.00
2024-01-24T08:44:11.919Z,100.00
2024-01-24T08:46:38.568Z,100.00
2024-01-24T08:49:05.168Z,100.00
2024-01-24T08:51:33.120Z,100.00
2024-01-24T08:54:00.751Z,100.00
2024-01-24T08:56:27.519Z,100.00
2024-01-24T08:58:54.002Z,100.00
2024-01-24T09:01:21.648Z,95.79
2024-01-24T09:03:49.753Z,94.25
2024-01-24T09:06:17.019Z,96.82
2024-01-24T09:08:46.613Z,99.90
2024-01-24T09:11:14.045Z,99.68
2024-01-24T09:13:40.790Z,100.00
2024-01-24T09:16:07.873Z,100.00
2024-01-24T09:18:35.042Z,100.00
2024-01-24T09:21:02.642Z,100.00
2024-01-24T09:23:29.684Z,100.00
2024-01-24T09:25:56.424Z,100.00
2024-01-24T09:28:23.380Z,100.00
2024-01-24T09:30:50.632Z,100.00
2024-01-24T09:33:18.107Z,100.00
2024-01-24T09:35:48.066Z,100.00
2024-01-24T09:38:14.997Z,100.00
2024-01-24T09:40:42.072Z,100.00
2024-01-24T09:43:10.507Z,100.00
2024-01-24T09:45:43.569Z,100.00
2024-01-24T09:48:12.682Z,100.00
2024-01-24T09:50:40.758Z,100.00
2024-01-24T09:53:09.879Z,100.00
2024-01-24T09:55:36.702Z,100.00
2024-01-24T09:58:03.532Z,100.00
2024-01-24T10:00:30.138Z,100.00
2024-01-24T10:02:57.142Z,95.32
2024-01-24T10:05:26.635Z,92.66
2024-01-24T10:07:54.986Z,87.85
2024-01-24T10:10:21.798Z,85.84
2024-01-24T10:12:48.553Z,85.10
2024-01-24T10:15:15.358Z,85.16
2024-01-24T10:17:43.631Z,83.17
2024-01-24T10:20:13.261Z,85.66
2024-01-24T10:22:40.893Z,83.60
2024-01-24T10:25:11.112Z,81.95
2024-01-24T10:27:41.254Z,76.67
2024-01-24T10:30:13.549Z,75.68
2024-01-24T10:32:43.670Z,73.87
2024-01-24T10:35:10.854Z,71.51
2024-01-24T10:37:38.042Z,74.12
2024-01-24T10:40:07.088Z,71.05
2024-01-24T10:42:40.574Z,72.59
2024-01-24T10:45:08.028Z,71.25
2024-01-24T10:47:37.724Z,71.63
2024-01-24T10:50:07.473Z,70.59
2024-01-24T10:52:34.615Z,69.31
2024-01-24T10:55:07.330Z,72.20
2024-01-24T10:57:35.994Z,71.92
2024-01-24T11:00:07.593Z,71.36
2024-01-24T11:02:34.406Z,71.92
2024-01-24T11:05:05.653Z,71.56
2024-01-24T11:07:41.767Z,71.49
2024-01-24T11:10:14.516Z,71.65
2024-01-24T11:12:41.286Z,72.35
2024-01-24T11:15:09.495Z,72.44
2024-01-24T11:17:37.041Z,72.66
2024-01-24T11:20:08.293Z,72.22
2024-01-24T11:22:35.372Z,71.87
2024-01-24T11:25:02.404Z,72.79
2024-01-24T11:27:38.969Z,72.26
2024-01-24T11:30:07.257Z,71.77
2024-01-24T11:32:59.747Z,73.20
2024-01-24T11:35:54.995Z,73.74
2024-01-24T11:38:26.625Z,71.26
2024-01-24T11:41:11.962Z,71.05
2024-01-24T11:43:40.294Z,71.28
2024-01-24T11:46:09.849Z,73.63
2024-01-24T11:48:39.896Z,72.09
2024-01-24T11:51:11.103Z,73.43
2024-01-24T11:53:38.124Z,71.70
2024-01-24T11:56:06.847Z,70.87
2024-01-24T11:58:34.420Z,72.38
2024-01-24T12:01:03.302Z,70.37
2024-01-24T12:03:31.060Z,70.74
2024-01-24T12:05:58.907Z,69.74
2024-01-24T12:08:25.738Z,69.43
2024-01-24T12:10:52.701Z,69.81
2024-01-24T12:13:22.262Z,71.20
2024-01-24T12:15:49.325Z,69.78
2024-01-24T12:18:19.340Z,70.21
2024-01-24T12:20:49.927Z,70.54
2024-01-24T12:23:17.681Z,69.05
2024-01-24T12:25:45.175Z,69.05
2024-01-24T12:28:13.157Z,70.70
2024-01-24T12:30:48.609Z,71.91
2024-01-24T12:33:17.394Z,70.55
2024-01-24T12:35:51.398Z,69.51
2024-01-24T12:38:18.975Z,70.63
2024-01-24T12:40:54.911Z,69.35
2024-01-24T12:43:24.067Z,69.13
2024-01-24T12:45:52.608Z,67.78
2024-01-24T12:48:22.832Z,68.19
2024-01-24T12:50:50.669Z,68.42
2024-01-24T12:53:17.715Z,67.81
2024-01-24T12:55:44.584Z,69.47
2024-01-24T12:58:11.266Z,69.01
2024-01-24T13:00:38.321Z,72.78
2024-01-24T13:03:06.490Z,74.18
2024-01-24T13:05:42.089Z,76.63
2024-01-24T13:08:13.705Z,75.58
2024-01-24T13:10:44.336Z,73.12
2024-01-24T13:13:12.154Z,71.50
2024-01-24T13:15:40.313Z,71.37
2024-01-24T13:18:08.781Z,72.45
2024-01-24T13:20:35.704Z,70.79
2024-01-24T13:23:02.896Z,71.72
2024-01-24T13:25:29.591Z,70.96
2024-01-24T13:27:56.774Z,73.27
2024-01-24T13:30:23.421Z,72.12
2024-01-24T13:32:50.415Z,70.89
2024-01-24T13:35:17.288Z,71.05
2024-01-24T13:37:44.957Z,71.46
2024-01-24T13:40:12.765Z,72.03
2024-01-24T13:42:40.616Z,70.91
2024-01-24T13:45:07.713Z,71.71
2024-01-24T13:47:34.380Z,72.37
2024-01-24T13:50:01.202Z,71.52
2024-01-24T13:52:27.997Z,72.47
2024-01-24T13:54:54.799Z,71.48
2024-01-24T13:57:21.539Z,71.65
2024-01-24T13:59:48.080Z,70.87
2024-01-24T14:02:14.788Z,72.24
2024-01-24T14:04:41.603Z,70.17
2024-01-24T14:07:08.670Z,70.95
2024-01-24T14:09:37.299Z,71.59
2024-01-24T14:12:04.517Z,70.34
2024-01-24T14:14:32.533Z,70.86
2024-01-24T14:16:59.574Z,70.73
2024-01-24T14:19:26.873Z,71.09
2024-01-24T14:21:54.041Z,72.46
2024-01-24T14:24:21.643Z,70.00
2024-01-24T14:26:49.773Z,70.78
2024-01-24T14:29:16.806Z,70.60
2024-01-24T14:31:43.499Z,70.70
2024-01-24T14:34:10.529Z,70.95
2024-01-24T14:36:38.111Z,70.18
2024-01-24T14:39:05.616Z,71.52
2024-01-24T14:41:32.735Z,71.08
2024-01-24T14:43:59.245Z,72.74
2024-01-24T14:46:26.272Z,71.59
2024-01-24T14:48:53.038Z,71.86
2024-01-24T14:51:21.053Z,72.17
2024-01-24T14:53:47.697Z,72.46
2024-01-24T14:56:14.435Z,72.54
2024-01-24T14:58:41.904Z,71.79
2024-01-24T15:01:08.992Z,72.48
2024-01-24T15:03:35.696Z,72.85
2024-01-24T15:06:02.191Z,73.54
2024-01-24T15:08:28.804Z,74.90
2024-01-24T15:10:55.629Z,74.21
2024-01-24T15:13:22.364Z,73.87
2024-01-24T15:15:50.964Z,74.97
2024-01-24T15:18:17.928Z,75.22
2024-01-24T15:20:53.834Z,74.13
2024-01-24T15:23:29.755Z,74.97
2024-01-24T15:25:57.169Z,74.20
2024-01-24T15:28:23.859Z,73.35
2024-01-24T15:30:50.914Z,75.31
2024-01-24T15:33:19.420Z,75.21
2024-01-24T15:35:46.827Z,74.60
2024-01-24T15:38:13.852Z,75.05
2024-01-24T15:40:40.629Z,75.03
2024-01-24T15:43:10.038Z,75.06
2024-01-24T15:45:37.249Z,74.25
2024-01-24T15:48:04.502Z,74.70
2024-01-24T15:50:31.394Z,74.91
2024-01-24T15:52:58.038Z,75.10
2024-01-24T15:55:24.844Z,76.63
2024-01-24T15:57:51.913Z,75.42
2024-01-24T16:00:21.210Z,75.65
2024-01-24T16:02:48.240Z,74.66
2024-01-24T16:05:14.791Z,75.47
2024-01-24T16:07:41.610Z,75.00
2024-01-24T16:10:08.491Z,74.99
2024-01-24T16:12:35.278Z,74.63
2024-01-24T16:15:02.359Z,75.73
2024-01-24T16:17:28.998Z,76.74
2024-01-24T16:19:55.938Z,75.79
2024-01-24T16:22:32.533Z,75.49
2024-01-24T16:25:02.818Z,76.34
2024-01-24T16:27:29.595Z,76.41
2024-01-24T16:29:57.160Z,75.87
2024-01-24T16:32:23.775Z,77.87
2024-01-24T16:34:50.422Z,77.10
2024-01-24T16:37:17.430Z,76.43
2024-01-24T16:39:44.300Z,76.30
2024-01-24T16:42:10.785Z,76.72
2024-01-24T16:44:37.536Z,76.38
2024-01-24T16:47:04.139Z,77.72
2024-01-24T16:49:32.053Z,76.38
2024-01-24T16:51:58.758Z,76.88
2024-01-24T16:54:25.249Z,78.33
2024-01-24T16:56:51.874Z,76.05
2024-01-24T16:59:18.405Z,77.32
2024-01-24T17:01:45.572Z,77.51
2024-01-24T17:04:12.172Z,76.18
2024-01-24T17:06:40.201Z,76.06
2024-01-24T17:09:07.519Z,76.73
2024-01-24T17:11:34.100Z,76.55
2024-01-24T17:14:00.593Z,76.78
2024-01-24T17:16:27.110Z,77.20
2024-01-24T17:18:53.727Z,77.42
2024-01-24T17:21:20.221Z,76.94
2024-01-24T17:23:46.919Z,77.64
2024-01-24T17:26:13.682Z,77.21
2024-01-24T17:28:40.348Z,77.45
2024-01-24T17:31:06.932Z,78.64
2024-01-24T17:33:33.748Z,78.78
2024-01-24T17:36:00.274Z,79.36
2024-01-24T17:38:28.810Z,79.61
2024-01-24T17:40:55.745Z,78.60
2024-01-24T17:43:22.488Z,78.51
2024-01-24T17:45:49.046Z,78.62
2024-01-24T17:48:17.107Z,79.30
2024-01-24T17:50:43.683Z,78.86
2024-01-24T17:53:12.959Z,79.40
2024-01-24T17:55:39.509Z,79.06
2024-01-24T17:58:06.269Z,80.84
2024-01-24T18:00:34.071Z,81.33
2024-01-24T18:03:00.986Z,81.05
2024-01-24T18:05:27.896Z,80.87
2024-01-24T18:07:56.680Z,80.75
2024-01-24T18:10:23.240Z,80.72
2024-01-24T18:12:49.904Z,82.63
2024-01-24T18:15:18.157Z,81.14
2024-01-24T18:17:44.641Z,81.76
2024-01-24T18:20:11.460Z,80.85
2024-01-24T18:22:37.954Z,82.55
2024-01-24T18:25:05.156Z,82.99
2024-01-24T18:27:31.989Z,81.30
2024-01-24T18:29:59.007Z,82.04
2024-01-24T18:32:25.505Z,81.27
2024-01-24T18:34:52.139Z,82.09
2024-01-24T18:37:18.835Z,81.59
2024-01-24T18:39:47.470Z,81.70
2024-01-24T18:42:14.053Z,81.81
2024-01-24T18:44:40.713Z,82.49
2024-01-24T18:47:07.568Z,82.75
2024-01-24T18:49:34.491Z,82.38
2024-01-24T18:52:01.487Z,81.63
2024-01-24T18:54:28.159Z,81.91
2024-01-24T18:56:54.867Z,81.99
2024-01-24T18:59:21.330Z,82.15
2024-01-24T19:01:49.158Z,82.00
2024-01-24T19:04:16.859Z,80.94
2024-01-24T19:06:43.922Z,81.63
2024-01-24T19:09:10.574Z,83.23
2024-01-24T19:11:37.508Z,84.19
2024-01-24T19:14:05.059Z,83.93
2024-01-24T19:16:32.132Z,81.81
2024-01-24T19:18:59.847Z,82.57
2024-01-24T19:21:26.413Z,82.04
2024-01-24T19:23:52.883Z,82.42
2024-01-24T19:26:19.646Z,82.57
2024-01-24T19:28:47.252Z,82.51
2024-01-24T19:31:13.926Z,82.90
2024-01-24T19:33:40.774Z,84.05
2024-01-24T19:36:07.606Z,84.67
2024-01-24T19:38:34.863Z,84.61
2024-01-24T19:41:01.478Z,83.58
2024-01-24T19:43:27.952Z,83.69
2024-01-24T19:45:54.627Z,83.48
2024-01-24T19:48:21.501Z,84.51
2024-01-24T19:50:48.100Z,84.08
2024-01-24T19:53:17.797Z,85.52
2024-01-24T19:55:50.331Z,86.25
2024-01-24T19:58:17.230Z,86.00
2024-01-24T20:00:43.812Z,87.18
2024-01-24T20:03:10.340Z,86.44
2024-01-24T20:05:38.064Z,87.81
2024-01-24T20:08:05.241Z,87.65
2024-01-24T20:10:31.730Z,87.76
2024-01-24T20:12:58.313Z,87.25
2024-01-24T20:15:26.114Z,87.42
2024-01-24T20:17:53.871Z,87.77
2024-01-24T20:20:20.651Z,86.71
2024-01-24T20:22:47.133Z,86.91
2024-01-24T20:25:14.025Z,87.25
2024-01-24T20:27:40.788Z,86.73
2024-01-24T20:30:08.449Z,86.91
2024-01-24T20:32:42.463Z,88.01
2024-01-24T20:35:12.137Z,87.77
2024-01-24T20:37:38.933Z,86.73
2024-01-24T20:40:06.365Z,87.29
2024-01-24T20:42:32.954Z,87.80
2024-01-24T20:44:59.741Z,88.51
2024-01-24T20:47:27.082Z,88.88
2024-01-24T20:49:55.663Z,89.95
2024-01-24T20:52:22.526Z,89.61
2024-01-24T20:54:49.279Z,88.85
2024-01-24T20:57:16.628Z,87.03
2024-01-24T20:59:43.262Z,86.40
2024-01-24T21:02:10.060Z,87.26
2024-01-24T21:04:37.294Z,87.33
2024-01-24T21:07:05.316Z,86.99
2024-01-24T21:09:33.898Z,86.87
2024-01-24T21:12:00.613Z,86.20
2024-01-24T21:14:27.081Z,86.86
2024-01-24T21:16:53.594Z,85.60
2024-01-24T21:19:25.002Z,86.73
2024-01-24T21:21:52.847Z,86.40
2024-01-24T21:24:19.573Z,86.49
2024-01-24T21:26:47.051Z,86.99
2024-01-24T21:29:13.837Z,87.54
2024-01-24T21:31:47.294Z,86.03
2024-01-24T21:34:14.300Z,85.21
2024-01-24T21:36:47.582Z,85.97
2024-01-24T21:39:15.319Z,86.62
2024-01-24T21:41:41.761Z,86.23
2024-01-24T21:44:08.277Z,86.68
2024-01-24T21:46:34.916Z,87.74
2024-01-24T21:49:01.569Z,86.04
2024-01-24T21:51:28.190Z,86.83
2024-01-24T21:53:54.686Z,86.35
2024-01-24T21:56:21.296Z,87.24
2024-01-24T21:58:49.218Z,87.66
2024-01-24T22:01:16.752Z,87.03
2024-01-24T22:03:43.702Z,89.04
2024-01-24T22:06:10.334Z,88.39
2024-01-24T22:08:37.105Z,87.23
2024-01-24T22:11:03.867Z,87.58
2024-01-24T22:13:30.317Z,85.65
2024-01-24T22:15:58.048Z,86.69
2024-01-24T22:18:30.182Z,87.32
2024-01-24T22:21:03.693Z,87.03
2024-01-24T22:23:30.125Z,86.60
2024-01-24T22:25:56.721Z,87.75
2024-01-24T22:28:23.239Z,87.94
2024-01-24T22:30:49.996Z,87.65
2024-01-24T22:33:17.244Z,88.81
2024-01-24T22:35:43.900Z,87.42
2024-01-24T22:38:10.350Z,88.00
2024-01-24T22:40:36.955Z,88.26
2024-01-24T22:43:03.738Z,86.80
2024-01-24T22:45:30.522Z,87.42
2024-01-24T22:47:59.675Z,88.13
2024-01-24T22:50:26.562Z,87.96
2024-01-24T22:52:53.502Z,89.19
2024-01-24T22:55:20.101Z,89.43
2024-01-24T22:57:50.318Z,90.09
2024-01-24T23:00:18.746Z,89.68
2024-01-24T23:02:49.471Z,89.34
2024-01-24T23:05:17.208Z,89.09
2024-01-24T23:07:44.244Z,90.96
2024-01-24T23:10:11.397Z,91.48
2024-01-24T23:12:38.604Z,90.77
2024-01-24T23:15:06.435Z,88.27
2024-01-24T23:17:33.117Z,88.45
2024-01-24T23:19:59.894Z,89.10
2024-01-24T23:22:27.826Z,87.95
2024-01-24T23:24:54.568Z,87.96
2024-01-24T23:27:21.292Z,88.20
2024-01-24T23:29:47.780Z,89.63
2024-01-24T23:32:14.474Z,89.72
2024-01-24T23:34:41.003Z,90.25
2024-01-24T23:37:07.765Z,89.77
2024-01-24T23:39:34.347Z,89.24
2024-01-24T23:42:01.316Z,89.90
2024-01-24T23:44:27.740Z,88.78
2024-01-24T23:46:54.355Z,89.39
2024-01-24T23:49:21.081Z,89.97
2024-01-24T23:51:48.074Z,90.20
2024-01-24T23:54:14.566Z,89.28
2024-01-24T23:56:41.183Z,90.10
2024-01-24T23:59:09.249Z,90.24
